sensor_id;sensor_type;location;lat;lon;timestamp;pressure;altitude;pressure_sealevel;temperature;humidity
6565;BME280;3316;44.118;27.258;2024-02-21T00:00:45;101910.31;;;8.11;100.00
6565;BME280;3316;44.118;27.258;2024-02-21T00:03:11;101903.16;;;8.05;100.00
6565;BME280;3316;44.118;27.258;2024-02-21T00:05:36;101909.25;;;8.01;100.00
6565;BME280;3316;44.118;27.258;2024-02-21T00:08:02;101893.41;;;7.97;100.00
6565;BME280;3316;44.118;27.258;2024-02-21T00:10:28;101898.81;;;8.06;100.00
6565;BME280;3316;44.118;27.258;2024-02-21T00:12:54;101878.47;;;7.93;100.00
6565;BME280;3316;44.118;27.258;2024-02-21T00:15:20;101883.03;;;8.01;100.00
6565;BME280;3316;44.118;27.258;2024-02-21T00:17:46;101861.03;;;7.93;100.00
6565;BME280;3316;44.118;27.258;2024-02-21T00:20:12;101893.56;;;8.06;100.00
6565;BME280;3316;44.118;27.258;2024-02-21T00:22:37;101864.56;;;7.95;100.00
6565;BME280;3316;44.118;27.258;2024-02-21T00:25:03;101890.03;;;8.02;100.00
6565;BME280;3316;44.118;27.258;2024-02-21T00:27:28;101797.34;;;7.54;100.00
6565;BME280;3316;44.118;27.258;2024-02-21T00:29:54;101876.09;;;8.05;100.00
6565;BME280;3316;44.118;27.258;2024-02-21T00:32:19;101869.81;;;7.97;100.00
6565;BME280;3316;44.118;27.258;2024-02-21T00:34:44;101869.84;;;7.98;100.00
6565;BME280;3316;44.118;27.258;2024-02-21T00:37:10;101831.78;;;7.72;100.00
6565;BME280;3316;44.118;27.258;2024-02-21T00:39:35;101809.56;;;7.55;100.00
6565;BME280;3316;44.118;27.258;2024-02-21T00:42:02;101867.97;;;7.91;100.00
6565;BME280;3316;44.118;27.258;2024-02-21T00:44:27;101874.03;;;7.90;100.00
6565;BME280;3316;44.118;27.258;2024-02-21T00:46:53;101872.31;;;7.91;100.00
6565;BME280;3316;44.118;27.258;2024-02-21T00:49:18;101885.47;;;7.94;100.00
6565;BME280;3316;44.118;27.258;2024-02-21T00:51:44;101884.59;;;7.93;100.00
6565;BME280;3316;44.118;27.258;2024-02-21T00:54:09;101885.38;;;7.88;100.00
6565;BME280;3316;44.118;27.258;2024-02-21T00:56:35;101836.81;;;7.63;100.00
6565;BME280;3316;44.118;27.258;2024-02-21T00:59:00;101882.78;;;7.89;100.00
6565;BME280;3316;44.118;27.258;2024-02-21T01:01:26;101878.31;;;7.85;100.00
6565;BME280;3316;44.118;27.258;2024-02-21T01:03:51;101881.72;;;7.81;100.00
6565;BME280;3316;44.118;27.258;2024-02-21T01:06:20;101872.38;;;7.94;100.00
6565;BME280;3316;44.118;27.258;2024-02-21T01:08:49;101879.25;;;7.87;100.00
6565;BME280;3316;44.118;27.258;2024-02-21T01:11:15;101880.03;;;7.83;100.00
6565;BME280;3316;44.118;27.258;2024-02-21T01:13:40;101877.28;;;7.77;100.00
6565;BME280;3316;44.118;27.258;2024-02-21T01:16:06;101877.38;;;7.82;100.00
6565;BME280;3316;44.118;27.258;2024-02-21T01:18:34;101880.84;;;7.82;100.00
6565;BME280;3316;44.118;27.258;2024-02-21T01:21:00;101866.84;;;7.80;100.00
6565;BME280;3316;44.118;27.258;2024-02-21T01:23:27;101872.06;;;7.79;100.00
6565;BME280;3316;44.118;27.258;2024-02-21T01:25:52;101857.88;;;7.69;100.00
6565;BME280;3316;44.118;27.258;2024-02-21T01:28:18;101862.28;;;7.70;100.00
6565;BME280;3316;44.118;27.258;2024-02-21T01:30:44;101857.06;;;7.72;100.00
6565;BME280;3316;44.118;27.258;2024-02-21T01:33:09;101857.88;;;7.69;100.00
6565;BME280;3316;44.118;27.258;2024-02-21T01:35:35;101845.56;;;7.64;100.00
6565;BME280;3316;44.118;27.258;2024-02-21T01:38:01;101850.78;;;7.62;100.00
6565;BME280;3316;44.118;27.258;2024-02-21T01:40:26;101838.31;;;7.52;100.00
6565;BME280;3316;44.118;27.258;2024-02-21T01:42:53;101852.53;;;7.63;100.00
6565;BME280;3316;44.118;27.258;2024-02-21T01:45:20;101833.00;;;7.49;100.00
6565;BME280;3316;44.118;27.258;2024-02-21T01:47:45;101859.69;;;7.70;100.00
6565;BME280;3316;44.118;27.258;2024-02-21T01:50:11;101815.59;;;7.51;100.00
6565;BME280;3316;44.118;27.258;2024-02-21T01:52:38;101849.06;;;7.64;100.00
6565;BME280;3316;44.118;27.258;2024-02-21T01:55:04;101849.13;;;7.67;100.00
6565;BME280;3316;44.118;27.258;2024-02-21T01:57:30;101853.56;;;7.71;100.00
6565;BME280;3316;44.118;27.258;2024-02-21T01:59:56;101841.22;;;7.64;100.00
6565;BME280;3316;44.118;27.258;2024-02-21T02:02:22;101812.03;;;7.48;100.00
6565;BME280;3316;44.118;27.258;2024-02-21T02:04:47;101842.91;;;7.62;100.00
6565;BME280;3316;44.118;27.258;2024-02-21T02:07:13;101810.31;;;7.48;100.00
6565;BME280;3316;44.118;27.258;2024-02-21T02:09:38;101831.53;;;7.60;100.00
6565;BME280;3316;44.118;27.258;2024-02-21T02:12:04;101807.59;;;7.45;100.00
6565;BME280;3316;44.118;27.258;2024-02-21T02:14:30;101829.59;;;7.53;100.00
6565;BME280;3316;44.118;27.258;2024-02-21T02:16:55;101839.31;;;7.59;100.00
6565;BME280;3316;44.118;27.258;2024-02-21T02:19:20;101840.97;;;7.54;100.00
6565;BME280;3316;44.118;27.258;2024-02-21T02:21:49;101838.09;;;7.42;100.00
6565;BME280;3316;44.118;27.258;2024-02-21T02:24:22;101776.88;;;6.96;100.00
6565;BME280;3316;44.118;27.258;2024-02-21T02:26:49;101799.22;;;7.19;100.00
6565;BME280;3316;44.118;27.258;2024-02-21T02:29:14;101767.72;;;7.15;100.00
6565;BME280;3316;44.118;27.258;2024-02-21T02:31:40;101823.53;;;7.54;100.00
6565;BME280;3316;44.118;27.258;2024-02-21T02:34:05;101803.88;;;7.33;100.00
6565;BME280;3316;44.118;27.258;2024-02-21T02:36:34;101828.66;;;7.50;100.00
6565;BME280;3316;44.118;27.258;2024-02-21T02:38:59;101822.47;;;7.46;100.00
6565;BME280;3316;44.118;27.258;2024-02-21T02:41:25;101836.50;;;7.48;100.00
6565;BME280;3316;44.118;27.258;2024-02-21T02:43:50;101838.34;;;7.54;100.00
6565;BME280;3316;44.118;27.258;2024-02-21T02:46:16;101832.00;;;7.43;100.00
6565;BME280;3316;44.118;27.258;2024-02-21T02:48:41;101833.69;;;7.39;100.00
6565;BME280;3316;44.118;27.258;2024-02-21T02:51:06;101838.16;;;7.45;100.00
6565;BME280;3316;44.118;27.258;2024-02-21T02:53:32;101840.06;;;7.53;100.00
6565;BME280;3316;44.118;27.258;2024-02-21T02:55:57;101827.81;;;7.51;100.00
6565;BME280;3316;44.118;27.258;2024-02-21T02:58:23;101806.63;;;7.39;100.00
6565;BME280;3316;44.118;27.258;2024-02-21T03:00:48;101842.69;;;7.52;100.00
6565;BME280;3316;44.118;27.258;2024-02-21T03:03:14;101798.38;;;7.22;100.00
6565;BME280;3316;44.118;27.258;2024-02-21T03:05:39;101784.19;;;7.11;100.00
6565;BME280;3316;44.118;27.258;2024-02-21T03:08:05;101832.56;;;7.28;100.00
6565;BME280;3316;44.118;27.258;2024-02-21T03:10:33;101843.03;;;7.28;100.00
6565;BME280;3316;44.118;27.258;2024-02-21T03:12:58;101846.78;;;7.39;100.00
6565;BME280;3316;44.118;27.258;2024-02-21T03:15:24;101836.03;;;7.27;100.00
6565;BME280;3316;44.118;27.258;2024-02-21T03:17:49;101812.16;;;7.13;100.00
6565;BME280;3316;44.118;27.258;2024-02-21T03:20:15;101841.47;;;7.36;100.00
6565;BME280;3316;44.118;27.258;2024-02-21T03:22:41;101810.56;;;7.20;100.00
6565;BME280;3316;44.118;27.258;2024-02-21T03:25:08;101848.38;;;7.33;100.00
6565;BME280;3316;44.118;27.258;2024-02-21T03:27:34;101846.44;;;7.26;100.00
6565;BME280;3316;44.118;27.258;2024-02-21T03:29:59;101849.06;;;7.26;100.00
6565;BME280;3316;44.118;27.258;2024-02-21T03:32:25;101843.75;;;7.21;100.00
6565;BME280;3316;44.118;27.258;2024-02-21T03:34:50;101847.25;;;7.22;100.00
6565;BME280;3316;44.118;27.258;2024-02-21T03:37:16;101850.78;;;7.24;100.00
6565;BME280;3316;44.118;27.258;2024-02-21T03:39:41;101849.00;;;7.22;100.00
6565;BME280;3316;44.118;27.258;2024-02-21T03:42:07;101845.47;;;7.20;100.00
6565;BME280;3316;44.118;27.258;2024-02-21T03:44:33;101848.22;;;7.25;100.00
6565;BME280;3316;44.118;27.258;2024-02-21T03:46:59;101847.38;;;7.28;100.00
6565;BME280;3316;44.118;27.258;2024-02-21T03:49:25;101849.16;;;7.29;100.00
6565;BME280;3316;44.118;27.258;2024-02-21T03:51:51;101855.31;;;7.31;100.00
6565;BME280;3316;44.118;27.258;2024-02-21T03:54:16;101845.72;;;7.31;100.00
6565;BME280;3316;44.118;27.258;2024-02-21T03:56:42;101851.78;;;7.30;100.00
6565;BME280;3316;44.118;27.258;2024-02-21T03:59:07;101830.56;;;7.18;100.00
6565;BME280;3316;44.118;27.258;2024-02-21T04:01:34;101853.28;;;7.17;100.00
6565;BME280;3316;44.118;27.258;2024-02-21T04:03:59;101848.13;;;7.22;100.00
6565;BME280;3316;44.118;27.258;2024-02-21T04:06:25;101832.28;;;7.16;100.00
6565;BME280;3316;44.118;27.258;2024-02-21T04:08:50;101838.50;;;7.21;100.00
6565;BME280;3316;44.118;27.258;2024-02-21T04:11:16;101819.09;;;7.11;100.00
6565;BME280;3316;44.118;27.258;2024-02-21T04:13:42;101840.19;;;7.17;100.00
6565;BME280;3316;44.118;27.258;2024-02-21T04:16:08;101834.19;;;7.23;100.00
6565;BME280;3316;44.118;27.258;2024-02-21T04:18:33;101806.06;;;7.14;100.00
6565;BME280;3316;44.118;27.258;2024-02-21T04:20:59;101831.00;;;7.38;100.00
6565;BME280;3316;44.118;27.258;2024-02-21T04:23:24;101816.16;;;7.35;100.00
6565;BME280;3316;44.118;27.258;2024-02-21T04:25:50;101839.75;;;7.38;100.00
6565;BME280;3316;44.118;27.258;2024-02-21T04:28:15;101841.56;;;7.41;100.00
6565;BME280;3316;44.118;27.258;2024-02-21T04:30:40;101828.25;;;7.32;100.00
6565;BME280;3316;44.118;27.258;2024-02-21T04:33:06;101838.09;;;7.43;100.00
6565;BME280;3316;44.118;27.258;2024-02-21T04:35:31;101845.91;;;7.40;100.00
6565;BME280;3316;44.118;27.258;2024-02-21T04:37:56;101838.78;;;7.33;100.00
6565;BME280;3316;44.118;27.258;2024-02-21T04:40:22;101827.16;;;7.20;100.00
6565;BME280;3316;44.118;27.258;2024-02-21T04:42:47;101857.13;;;7.33;100.00
6565;BME280;3316;44.118;27.258;2024-02-21T04:45:13;101859.88;;;7.39;100.00
6565;BME280;3316;44.118;27.258;2024-02-21T04:47:38;101855.34;;;7.32;100.00
6565;BME280;3316;44.118;27.258;2024-02-21T04:50:04;101860.22;;;7.17;100.00
6565;BME280;3316;44.118;27.258;2024-02-21T04:52:29;101855.88;;;7.17;100.00
6565;BME280;3316;44.118;27.258;2024-02-21T04:54:55;101860.88;;;7.46;100.00
6565;BME280;3316;44.118;27.258;2024-02-21T04:57:21;101860.97;;;7.49;100.00
6565;BME280;3316;44.118;27.258;2024-02-21T04:59:46;101846.88;;;7.45;100.00
6565;BME280;3316;44.118;27.258;2024-02-21T05:02:15;101848.53;;;7.40;100.00
6565;BME280;3316;44.118;27.258;2024-02-21T05:04:42;101864.56;;;7.55;100.00
6565;BME280;3316;44.118;27.258;2024-02-21T05:07:08;101861.78;;;7.48;100.00
6565;BME280;3316;44.118;27.258;2024-02-21T05:09:33;101839.75;;;7.38;100.00
6565;BME280;3316;44.118;27.258;2024-02-21T05:11:59;101864.44;;;7.49;100.00
6565;BME280;3316;44.118;27.258;2024-02-21T05:14:25;101871.50;;;7.53;100.00
6565;BME280;3316;44.118;27.258;2024-02-21T05:16:52;101861.88;;;7.51;100.00
6565;BME280;3316;44.118;27.258;2024-02-21T05:19:17;101879.19;;;7.46;100.00
6565;BME280;3316;44.118;27.258;2024-02-21T05:21:43;101854.44;;;7.32;100.00
6565;BME280;3316;44.118;27.258;2024-02-21T05:24:08;101877.47;;;7.46;100.00
6565;BME280;3316;44.118;27.258;2024-02-21T05:26:34;101881.03;;;7.50;100.00
6565;BME280;3316;44.118;27.258;2024-02-21T05:28:59;101880.31;;;7.57;100.00
6565;BME280;3316;44.118;27.258;2024-02-21T05:31:25;101882.19;;;7.62;100.00
6565;BME280;3316;44.118;27.258;2024-02-21T05:33:50;101870.66;;;7.54;100.00
6565;BME280;3316;44.118;27.258;2024-02-21T05:36:16;101882.91;;;7.55;100.00
6565;BME280;3316;44.118;27.258;2024-02-21T05:38:41;101887.28;;;7.55;100.00
6565;BME280;3316;44.118;27.258;2024-02-21T05:41:07;101884.53;;;7.50;100.00
6565;BME280;3316;44.118;27.258;2024-02-21T05:43:32;101892.47;;;7.53;100.00
6565;BME280;3316;44.118;27.258;2024-02-21T05:45:58;101890.75;;;7.55;100.00
6565;BME280;3316;44.118;27.258;2024-02-21T05:48:24;101882.34;;;7.68;100.00
6565;BME280;3316;44.118;27.258;2024-02-21T05:50:50;101898.75;;;7.61;100.00
6565;BME280;3316;44.118;27.258;2024-02-21T05:53:15;101820.06;;;7.15;100.00
6565;BME280;3316;44.118;27.258;2024-02-21T05:55:41;101903.28;;;7.68;100.00
6565;BME280;3316;44.118;27.258;2024-02-21T05:58:07;101903.41;;;7.74;100.00
6565;BME280;3316;44.118;27.258;2024-02-21T06:00:35;101909.59;;;7.78;100.00
6565;BME280;3316;44.118;27.258;2024-02-21T06:03:00;101908.56;;;7.70;100.00
6565;BME280;3316;44.118;27.258;2024-02-21T06:05:27;101909.50;;;7.73;100.00
6565;BME280;3316;44.118;27.258;2024-02-21T06:07:52;101897.66;;;7.52;100.00
6565;BME280;3316;44.118;27.258;2024-02-21T06:10:18;101904.84;;;7.60;100.00
6565;BME280;3316;44.118;27.258;2024-02-21T06:12:43;101885.34;;;7.46;100.00
6565;BME280;3316;44.118;27.258;2024-02-21T06:15:09;101902.66;;;7.41;100.00
6565;BME280;3316;44.118;27.258;2024-02-21T06:17:34;101905.16;;;7.35;100.00
6565;BME280;3316;44.118;27.258;2024-02-21T06:20:00;101906.19;;;7.43;100.00
6565;BME280;3316;44.118;27.258;2024-02-21T06:22:25;101910.75;;;7.52;100.00
6565;BME280;3316;44.118;27.258;2024-02-21T06:24:51;101911.56;;;7.49;100.00
6565;BME280;3316;44.118;27.258;2024-02-21T06:27:16;101911.78;;;7.58;100.00
6565;BME280;3316;44.118;27.258;2024-02-21T06:29:42;101916.59;;;7.79;100.00
6565;BME280;3316;44.118;27.258;2024-02-21T06:32:08;101912.53;;;7.91;100.00
6565;BME280;3316;44.118;27.258;2024-02-21T06:34:33;101913.31;;;7.89;100.00
6565;BME280;3316;44.118;27.258;2024-02-21T06:36:59;101917.03;;;7.98;100.00
6565;BME280;3316;44.118;27.258;2024-02-21T06:39:24;101920.56;;;8.00;100.00
6565;BME280;3316;44.118;27.258;2024-02-21T06:41:50;101914.38;;;7.97;100.00
6565;BME280;3316;44.118;27.258;2024-02-21T06:44:17;101896.53;;;7.79;100.00
6565;BME280;3316;44.118;27.258;2024-02-21T06:46:42;101866.41;;;7.59;100.00
6565;BME280;3316;44.118;27.258;2024-02-21T06:49:08;101925.88;;;8.03;100.00
6565;BME280;3316;44.118;27.258;2024-02-21T06:51:33;101884.34;;;7.81;100.00
6565;BME280;3316;44.118;27.258;2024-02-21T06:54:00;101919.75;;;8.04;100.00
6565;BME280;3316;44.118;27.258;2024-02-21T06:56:25;101919.94;;;8.13;100.00
6565;BME280;3316;44.118;27.258;2024-02-21T06:58:57;101908.47;;;8.07;100.00
6565;BME280;3316;44.118;27.258;2024-02-21T07:01:23;101931.63;;;8.28;100.00
6565;BME280;3316;44.118;27.258;2024-02-21T07:03:49;101932.50;;;8.27;100.00
6565;BME280;3316;44.118;27.258;2024-02-21T07:06:14;101928.88;;;8.23;100.00
6565;BME280;3316;44.118;27.258;2024-02-21T07:08:40;101922.88;;;8.27;100.00
6565;BME280;3316;44.118;27.258;2024-02-21T07:11:06;101932.63;;;8.33;100.00
6565;BME280;3316;44.118;27.258;2024-02-21T07:13:32;101930.81;;;8.30;100.00
6565;BME280;3316;44.118;27.258;2024-02-21T07:15:58;101929.00;;;8.28;100.00
6565;BME280;3316;44.118;27.258;2024-02-21T07:18:23;101921.09;;;8.25;100.00
6565;BME280;3316;44.118;27.258;2024-02-21T07:20:51;101925.53;;;8.29;100.00
6565;BME280;3316;44.118;27.258;2024-02-21T07:23:16;101924.50;;;8.22;100.00
6565;BME280;3316;44.118;27.258;2024-02-21T07:25:42;101908.63;;;8.16;100.00
6565;BME280;3316;44.118;27.258;2024-02-21T07:28:07;101933.41;;;8.29;100.00
6565;BME280;3316;44.118;27.258;2024-02-21T07:30:33;101895.50;;;8.15;100.00
6565;BME280;3316;44.118;27.258;2024-02-21T07:32:59;101926.19;;;8.20;100.00
6565;BME280;3316;44.118;27.258;2024-02-21T07:35:24;101926.03;;;8.11;100.00
6565;BME280;3316;44.118;27.258;2024-02-21T07:37:49;101924.22;;;8.08;100.00
6565;BME280;3316;44.118;27.258;2024-02-21T07:40:16;101917.97;;;8.02;100.00
6565;BME280;3316;44.118;27.258;2024-02-21T07:42:42;101926.03;;;8.11;100.00
6565;BME280;3316;44.118;27.258;2024-02-21T07:45:08;101920.91;;;8.17;100.00
6565;BME280;3316;44.118;27.258;2024-02-21T07:47:34;101918.38;;;8.23;100.00
6565;BME280;3316;44.118;27.258;2024-02-21T07:49:59;101921.00;;;8.23;100.00
6565;BME280;3316;44.118;27.258;2024-02-21T07:52:25;101926.19;;;8.20;100.00
6565;BME280;3316;44.118;27.258;2024-02-21T07:54:50;101923.56;;;8.19;100.00
6565;BME280;3316;44.118;27.258;2024-02-21T07:57:17;101925.31;;;8.20;100.00
6565;BME280;3316;44.118;27.258;2024-02-21T07:59:43;101910.84;;;7.96;100.00
6565;BME280;3316;44.118;27.258;2024-02-21T08:02:08;101911.66;;;7.92;100.00
6565;BME280;3316;44.118;27.258;2024-02-21T08:04:34;101895.94;;;7.92;100.00
6565;BME280;3316;44.118;27.258;2024-02-21T08:06:59;101918.97;;;8.08;100.00
6565;BME280;3316;44.118;27.258;2024-02-21T08:09:28;101913.78;;;8.11;100.00
6565;BME280;3316;44.118;27.258;2024-02-21T08:11:54;101891.81;;;8.05;100.00
6565;BME280;3316;44.118;27.258;2024-02-21T08:14:21;101919.09;;;8.13;100.00
6565;BME280;3316;44.118;27.258;2024-02-21T08:16:48;101881.25;;;8.00;100.00
6565;BME280;3316;44.118;27.258;2024-02-21T08:19:13;101915.63;;;8.16;100.00
6565;BME280;3316;44.118;27.258;2024-02-21T08:21:39;101919.09;;;8.15;100.00
6565;BME280;3316;44.118;27.258;2024-02-21T08:24:05;101891.81;;;8.03;100.00
6565;BME280;3316;44.118;27.258;2024-02-21T08:26:30;101898.28;;;8.22;100.00
6565;BME280;3316;44.118;27.258;2024-02-21T08:28:57;101919.53;;;8.36;100.00
6565;BME280;3316;44.118;27.258;2024-02-21T08:31:28;101928.63;;;8.54;100.00
6565;BME280;3316;44.118;27.258;2024-02-21T08:34:02;101929.97;;;8.77;100.00
6565;BME280;3316;44.118;27.258;2024-02-21T08:36:35;101925.69;;;8.85;100.00
6565;BME280;3316;44.118;27.258;2024-02-21T08:39:01;101932.72;;;8.86;100.00
6565;BME280;3316;44.118;27.258;2024-02-21T08:41:30;101924.16;;;8.96;100.00
6565;BME280;3316;44.118;27.258;2024-02-21T08:43:56;101931.44;;;9.14;100.00
6565;BME280;3316;44.118;27.258;2024-02-21T08:46:22;101929.72;;;9.16;100.00
6565;BME280;3316;44.118;27.258;2024-02-21T08:48:50;101930.97;;;9.39;100.00
6565;BME280;3316;44.118;27.258;2024-02-21T08:51:16;101939.06;;;9.54;100.00
6565;BME280;3316;44.118;27.258;2024-02-21T08:53:43;101941.69;;;9.54;100.00
6565;BME280;3316;44.118;27.258;2024-02-21T08:56:09;101879.25;;;9.37;100.00
6565;BME280;3316;44.118;27.258;2024-02-21T08:58:35;101947.09;;;9.63;100.00
6565;BME280;3316;44.118;27.258;2024-02-21T09:01:02;101931.28;;;9.60;100.00
6565;BME280;3316;44.118;27.258;2024-02-21T09:03:30;101933.91;;;9.60;100.00
6565;BME280;3316;44.118;27.258;2024-02-21T09:05:56;101943.53;;;9.60;100.00
6565;BME280;3316;44.118;27.258;2024-02-21T09:08:21;101918.06;;;9.54;100.00
6565;BME280;3316;44.118;27.258;2024-02-21T09:10:47;101922.50;;;9.58;100.00
6565;BME280;3316;44.118;27.258;2024-02-21T09:13:13;101922.31;;;9.46;100.00
6565;BME280;3316;44.118;27.258;2024-02-21T09:15:38;101942.00;;;9.75;100.00
6565;BME280;3316;44.118;27.258;2024-02-21T09:18:04;101927.66;;;9.52;100.00
6565;BME280;3316;44.118;27.258;2024-02-21T09:20:29;101939.78;;;9.44;100.00
6565;BME280;3316;44.118;27.258;2024-02-21T09:22:55;101899.97;;;9.16;100.00
6565;BME280;3316;44.118;27.258;2024-02-21T09:25:20;101944.19;;;9.45;100.00
6565;BME280;3316;44.118;27.258;2024-02-21T09:27:45;101936.22;;;9.39;100.00
6565;BME280;3316;44.118;27.258;2024-02-21T09:30:11;101933.25;;;9.17;100.00
6565;BME280;3316;44.118;27.258;2024-02-21T09:32:37;101946.53;;;9.26;100.00
6565;BME280;3316;44.118;27.258;2024-02-21T09:35:04;101950.16;;;9.35;100.00
6565;BME280;3316;44.118;27.258;2024-02-21T09:37:33;101948.47;;;9.39;100.00
6565;BME280;3316;44.118;27.258;2024-02-21T09:39:58;101942.47;;;9.47;100.00
6565;BME280;3316;44.118;27.258;2024-02-21T09:42:35;101947.03;;;9.59;100.00
6565;BME280;3316;44.118;27.258;2024-02-21T09:45:04;101923.28;;;9.53;100.00
6565;BME280;3316;44.118;27.258;2024-02-21T09:50:36;101946.03;;;9.51;100.00
6565;BME280;3316;44.118;27.258;2024-02-21T09:53:06;101945.13;;;9.50;100.00
6565;BME280;3316;44.118;27.258;2024-02-21T09:55:33;101938.16;;;9.52;100.00
6565;BME280;3316;44.118;27.258;2024-02-21T09:58:01;101934.72;;;9.55;100.00
6565;BME280;3316;44.118;27.258;2024-02-21T10:00:26;101906.66;;;9.54;100.00
6565;BME280;3316;44.118;27.258;2024-02-21T10:02:53;101920.78;;;9.62;100.00
6565;BME280;3316;44.118;27.258;2024-02-21T10:05:19;101919.88;;;9.60;100.00
6565;BME280;3316;44.118;27.258;2024-02-21T10:07:44;101930.44;;;9.61;100.00
6565;BME280;3316;44.118;27.258;2024-02-21T10:10:10;101928.81;;;9.71;100.00
6565;BME280;3316;44.118;27.258;2024-02-21T10:12:36;101897.84;;;9.50;100.00
6565;BME280;3316;44.118;27.258;2024-02-21T10:15:06;101889.19;;;9.57;100.00
6565;BME280;3316;44.118;27.258;2024-02-21T10:17:34;101920.88;;;9.69;100.00
6565;BME280;3316;44.118;27.258;2024-02-21T10:20:10;101892.75;;;9.59;100.00
6565;BME280;3316;44.118;27.258;2024-02-21T10:22:37;101859.25;;;9.46;100.00
6565;BME280;3316;44.118;27.258;2024-02-21T10:25:13;101905.09;;;9.66;100.00
6565;BME280;3316;44.118;27.258;2024-02-21T10:27:39;101904.19;;;9.66;100.00
6565;BME280;3316;44.118;27.258;2024-02-21T10:30:07;101905.13;;;9.69;100.00
6565;BME280;3316;44.118;27.258;2024-02-21T10:32:33;101883.16;;;9.66;100.00
6565;BME280;3316;44.118;27.258;2024-02-21T10:35:03;101889.47;;;9.77;100.00
6565;BME280;3316;44.118;27.258;2024-02-21T10:37:31;101900.19;;;9.94;100.00
6565;BME280;3316;44.118;27.258;2024-02-21T10:39:57;101873.66;;;9.75;100.00
6565;BME280;3316;44.118;27.258;2024-02-21T10:42:22;101856.97;;;9.70;100.00
6565;BME280;3316;44.118;27.258;2024-02-21T10:44:53;101893.94;;;9.87;100.00
6565;BME280;3316;44.118;27.258;2024-02-21T10:47:22;101870.13;;;9.73;100.00
6565;BME280;3316;44.118;27.258;2024-02-21T10:49:57;101873.81;;;9.87;100.00
6565;BME280;3316;44.118;27.258;2024-02-21T10:54:56;101883.13;;;9.61;100.00
6565;BME280;3316;44.118;27.258;2024-02-21T10:57:25;101853.97;;;9.45;100.00
6565;BME280;3316;44.118;27.258;2024-02-21T10:59:53;101876.97;;;9.59;100.00
6565;BME280;3316;44.118;27.258;2024-02-21T11:02:20;101874.19;;;9.49;100.00
6565;BME280;3316;44.118;27.258;2024-02-21T11:04:46;101845.72;;;9.18;100.00
6565;BME280;3316;44.118;27.258;2024-02-21T11:07:14;101861.50;;;9.21;100.00
6565;BME280;3316;44.118;27.258;2024-02-21T11:09:50;101870.34;;;9.26;100.00
6565;BME280;3316;44.118;27.258;2024-02-21T11:12:20;101864.13;;;9.19;100.00
6565;BME280;3316;44.118;27.258;2024-02-21T11:14:46;101860.56;;;9.14;100.00
6565;BME280;3316;44.118;27.258;2024-02-21T11:17:18;101861.47;;;9.18;100.00
6565;BME280;3316;44.118;27.258;2024-02-21T11:19:44;101857.06;;;9.15;100.00
6565;BME280;3316;44.118;27.258;2024-02-21T11:22:17;101834.13;;;9.02;100.00
6565;BME280;3316;44.118;27.258;2024-02-21T11:24:43;101853.56;;;9.15;100.00
6565;BME280;3316;44.118;27.258;2024-02-21T11:27:12;101842.09;;;9.08;100.00
6565;BME280;3316;44.118;27.258;2024-02-21T11:29:56;101846.53;;;9.15;100.00
6565;BME280;3316;44.118;27.258;2024-02-21T11:32:22;101818.44;;;9.07;100.00
6565;BME280;3316;44.118;27.258;2024-02-21T11:34:59;101814.78;;;8.97;100.00
6565;BME280;3316;44.118;27.258;2024-02-21T11:37:30;101849.28;;;9.23;100.00
6565;BME280;3316;44.118;27.258;2024-02-21T11:39:58;101792.09;;;9.01;100.00
6565;BME280;3316;44.118;27.258;2024-02-21T11:42:27;101841.59;;;9.36;100.00
6565;BME280;3316;44.118;27.258;2024-02-21T11:44:54;101832.78;;;9.30;100.00
6565;BME280;3316;44.118;27.258;2024-02-21T11:47:22;101840.81;;;9.42;100.00
6565;BME280;3316;44.118;27.258;2024-02-21T11:49:48;101839.28;;;9.59;100.00
6565;BME280;3316;44.118;27.258;2024-02-21T11:52:15;101828.00;;;9.67;100.00
6565;BME280;3316;44.118;27.258;2024-02-21T11:54:44;101782.16;;;9.41;100.00
6565;BME280;3316;44.118;27.258;2024-02-21T11:57:10;101827.38;;;9.88;100.00
6565;BME280;3316;44.118;27.258;2024-02-21T11:59:36;101801.84;;;9.76;100.00
6565;BME280;3316;44.118;27.258;2024-02-21T12:02:01;101799.28;;;9.82;100.00
6565;BME280;3316;44.118;27.258;2024-02-21T12:04:30;101830.34;;;10.14;100.00
6565;BME280;3316;44.118;27.258;2024-02-21T12:06:57;101831.25;;;10.20;100.00
6565;BME280;3316;44.118;27.258;2024-02-21T12:09:23;101783.69;;;9.99;100.00
6565;BME280;3316;44.118;27.258;2024-02-21T12:11:59;101828.69;;;10.26;100.00
6565;BME280;3316;44.118;27.258;2024-02-21T12:14:26;101771.44;;;10.01;100.00
6565;BME280;3316;44.118;27.258;2024-02-21T12:16:51;101812.94;;;10.28;100.00
6565;BME280;3316;44.118;27.258;2024-02-21T12:19:17;101812.19;;;10.44;100.00
6565;BME280;3316;44.118;27.258;2024-02-21T12:21:43;101822.94;;;10.68;100.00
6565;BME280;3316;44.118;27.258;2024-02-21T12:24:22;101818.53;;;10.62;100.00
6565;BME280;3316;44.118;27.258;2024-02-21T12:26:52;101806.16;;;10.55;100.00
6565;BME280;3316;44.118;27.258;2024-02-21T12:29:21;101798.25;;;10.52;100.00
6565;BME280;3316;44.118;27.258;2024-02-21T12:31:48;101756.72;;;10.18;100.00
6565;BME280;3316;44.118;27.258;2024-02-21T12:34:15;101795.63;;;10.51;100.00
6565;BME280;3316;44.118;27.258;2024-02-21T12:36:41;101801.03;;;10.70;100.00
6565;BME280;3316;44.118;27.258;2024-02-21T12:39:08;101803.81;;;10.93;100.00
6565;BME280;3316;44.118;27.258;2024-02-21T12:41:34;101774.72;;;10.75;100.00
6565;BME280;3316;44.118;27.258;2024-02-21T12:44:01;101790.63;;;10.84;100.00
6565;BME280;3316;44.118;27.258;2024-02-21T12:46:28;101792.44;;;10.96;100.00
6565;BME280;3316;44.118;27.258;2024-02-21T12:48:54;101781.88;;;10.91;100.00
6565;BME280;3316;44.118;27.258;2024-02-21T12:51:19;101768.75;;;10.99;100.00
6565;BME280;3316;44.118;27.258;2024-02-21T12:53:47;101768.72;;;10.91;100.00
6565;BME280;3316;44.118;27.258;2024-02-21T12:56:15;101782.88;;;11.13;100.00
6565;BME280;3316;44.118;27.258;2024-02-21T12:58:40;101769.63;;;11.02;100.00
6565;BME280;3316;44.118;27.258;2024-02-21T13:01:06;101786.34;;;11.04;100.00